createdAt,value
2023-05-18T00:00:16.082Z,4.30
2023-05-18T00:05:20.719Z,4.68
2023-05-18T00:10:22.384Z,4.10
2023-05-18T00:15:24.166Z,3.90
2023-05-18T00:20:26.804Z,4.38
2023-05-18T00:25:28.688Z,4.07
2023-05-18T00:30:30.413Z,4.60
2023-05-18T00:35:32.278Z,3.65
2023-05-18T00:40:33.991Z,3.92
2023-05-18T00:45:35.970Z,4.38
2023-05-18T00:50:38.234Z,4.00
2023-05-18T00:55:39.823Z,3.90
2023-05-18T01:00:41.391Z,3.47
2023-05-18T01:05:42.963Z,3.50
2023-05-18T01:10:46.470Z,3.80
2023-05-18T01:15:54.486Z,3.80
2023-05-18T01:21:00.324Z,3.78
2023-05-18T01:26:32.808Z,3.70
2023-05-18T01:31:35.827Z,3.25
2023-05-18T01:36:37.744Z,4.05
2023-05-18T01:41:43.344Z,4.00
2023-05-18T01:46:59.488Z,3.13
2023-05-18T01:52:08.213Z,3.38
2023-05-18T01:57:10.746Z,3.10
2023-05-18T02:02:12.566Z,3.22
2023-05-18T02:07:14.159Z,3.88
2023-05-18T02:12:16.849Z,3.67
2023-05-18T02:17:18.400Z,3.53
2023-05-18T02:22:19.920Z,4.00
2023-05-18T02:27:21.836Z,3.63
2023-05-18T02:32:23.529Z,4.53
2023-05-18T02:37:25.065Z,3.80
2023-05-18T02:42:27.072Z,3.38
2023-05-18T02:47:29.682Z,3.25
2023-05-18T02:52:31.494Z,3.90
2023-05-18T02:57:33.958Z,3.28
2023-05-18T03:02:41.368Z,3.92
2023-05-18T03:07:50.591Z,4.03
2023-05-18T03:12:53.492Z,3.58
2023-05-18T03:17:55.900Z,4.47
2023-05-18T03:22:58.067Z,4.20
2023-05-18T03:27:59.728Z,3.90
2023-05-18T03:33:02.646Z,4.35
2023-05-18T03:38:05.647Z,4.15
2023-05-18T03:43:07.809Z,4.13
2023-05-18T03:48:11.179Z,4.22
2023-05-18T03:53:13.368Z,3.50
2023-05-18T03:58:16.059Z,4.25
2023-05-18T04:03:17.899Z,4.15
2023-05-18T04:08:20.514Z,4.07
2023-05-18T04:13:22.061Z,4.28
2023-05-18T04:18:23.861Z,4.28
2023-05-18T04:23:25.615Z,3.88
2023-05-18T04:28:28.594Z,3.78
2023-05-18T04:33:30.420Z,4.18
2023-05-18T04:38:34.598Z,3.70
2023-05-18T04:43:37.891Z,3.47
2023-05-18T04:48:40.054Z,3.97
2023-05-18T04:53:41.681Z,4.32
2023-05-18T04:58:48.203Z,3.40
2023-05-18T05:03:50.005Z,3.20
2023-05-18T05:08:51.958Z,3.67
2023-05-18T05:13:53.555Z,3.33
2023-05-18T05:18:55.175Z,3.58
2023-05-18T05:23:56.717Z,4.25
2023-05-18T05:29:00.210Z,4.00
2023-05-18T05:34:04.430Z,3.25
2023-05-18T05:39:06.078Z,3.03
2023-05-18T05:44:10.711Z,3.28
2023-05-18T05:49:12.466Z,3.13
2023-05-18T05:54:14.673Z,2.92
2023-05-18T05:59:16.282Z,3.15
2023-05-18T06:04:18.656Z,3.10
2023-05-18T06:09:20.687Z,2.58
2023-05-18T06:14:23.748Z,2.38
2023-05-18T06:19:26.445Z,2.78
2023-05-18T06:24:28.548Z,2.67
2023-05-18T06:30:07.775Z,2.78
2023-05-18T06:35:24.929Z,2.45
2023-05-18T06:40:26.488Z,2.78
2023-05-18T06:45:28.255Z,2.67
2023-05-18T06:50:35.351Z,2.97
2023-05-18T06:55:37.891Z,3.42
2023-05-18T07:00:39.866Z,1.83
2023-05-18T07:05:42.137Z,2.40
2023-05-18T07:10:43.738Z,2.50
2023-05-18T07:15:45.715Z,2.28
2023-05-18T07:20:47.285Z,2.97
2023-05-18T07:25:49.242Z,2.25
2023-05-18T07:30:51.044Z,2.15
2023-05-18T07:35:52.595Z,2.35
2023-05-18T07:40:54.229Z,2.58
2023-05-18T07:45:55.785Z,3.15
2023-05-18T07:50:57.297Z,1.75
2023-05-18T07:55:58.892Z,3.08
2023-05-18T08:01:00.445Z,2.80
2023-05-18T08:06:02.076Z,2.20
2023-05-18T08:11:04.882Z,2.20
2023-05-18T08:16:11.781Z,2.22
2023-05-18T08:21:14.132Z,2.60
2023-05-18T08:26:15.664Z,2.10
2023-05-18T08:31:17.246Z,2.53
2023-05-18T08:36:18.918Z,2.83
2023-05-18T08:41:26.598Z,2.47
2023-05-18T08:46:34.745Z,2.65
2023-05-18T08:51:38.032Z,2.28
2023-05-18T08:56:40.348Z,2.90
2023-05-18T09:01:42.058Z,2.83
2023-05-18T09:06:43.892Z,2.60
2023-05-18T09:11:47.058Z,3.22
2023-05-18T09:16:51.097Z,2.63
2023-05-18T09:21:52.659Z,2.28
2023-05-18T09:26:54.710Z,3.15
2023-05-18T09:31:56.416Z,2.58
2023-05-18T09:36:58.594Z,3.22
2023-05-18T09:42:03.519Z,2.85
2023-05-18T09:47:12.034Z,2.70
2023-05-18T09:52:13.775Z,2.60
2023-05-18T09:57:20.752Z,2.50
2023-05-18T10:02:25.232Z,2.10
2023-05-18T10:07:29.227Z,3.65
2023-05-18T10:12:30.879Z,3.15
2023-05-18T10:17:33.587Z,2.60
2023-05-18T10:22:36.537Z,2.30
2023-05-18T10:27:39.122Z,2.75
2023-05-18T10:32:42.722Z,2.53
2023-05-18T10:37:50.175Z,2.42
2023-05-18T10:42:53.263Z,2.38
2023-05-18T10:47:55.779Z,2.25
2023-05-18T10:52:59.717Z,3.70
2023-05-18T10:58:07.310Z,2.33
2023-05-18T11:03:13.560Z,2.22
2023-05-18T11:08:26.666Z,2.40
2023-05-18T11:13:30.157Z,2.50
2023-05-18T11:18:45.285Z,2.53
2023-05-18T11:24:17.294Z,2.53
2023-05-18T11:29:20.207Z,2.58
2023-05-18T11:34:37.263Z,2.50
2023-05-18T11:39:51.663Z,2.58
2023-05-18T11:45:05.488Z,1.90
2023-05-18T11:50:09.194Z,2.45
2023-05-18T11:55:14.408Z,2.47
2023-05-18T12:00:17.073Z,2.33
2023-05-18T12:05:19.507Z,2.50
2023-05-18T12:10:22.171Z,2.17
2023-05-18T12:15:24.483Z,2.50
2023-05-18T12:20:26.661Z,1.98
2023-05-18T12:25:28.425Z,2.13
2023-05-18T12:30:35.501Z,1.80
2023-05-18T12:35:37.909Z,1.83
2023-05-18T12:40:48.575Z,2.10
2023-05-18T12:45:50.290Z,1.98
2023-05-18T12:50:52.160Z,2.03
2023-05-18T12:56:01.613Z,2.38
2023-05-18T13:01:12.289Z,1.55
2023-05-18T13:06:13.844Z,2.10
2023-05-18T13:11:16.726Z,1.95
2023-05-18T13:16:18.355Z,2.53
2023-05-18T13:21:19.968Z,1.98
2023-05-18T13:26:22.931Z,1.52
2023-05-18T13:31:25.225Z,1.88
2023-05-18T13:36:29.630Z,2.35
2023-05-18T13:41:31.326Z,2.00
2023-05-18T13:46:33.173Z,2.00
2023-05-18T13:51:34.813Z,1.67
2023-05-18T13:56:36.416Z,1.70
2023-05-18T14:01:38.043Z,2.40
2023-05-18T14:06:40.901Z,1.98
2023-05-18T14:11:42.549Z,1.67
2023-05-18T14:16:44.147Z,2.00
2023-05-18T14:21:45.758Z,1.50
2023-05-18T14:26:47.338Z,1.65
2023-05-18T14:31:49.041Z,1.60
2023-05-18T14:36:50.783Z,1.50
2023-05-18T14:41:52.374Z,1.58
2023-05-18T14:46:54.009Z,1.80
2023-05-18T14:51:55.684Z,1.40
2023-05-18T14:56:57.426Z,1.90
2023-05-18T15:01:59.125Z,1.95
2023-05-18T15:07:00.777Z,1.58
2023-05-18T15:12:02.437Z,1.73
2023-05-18T15:17:04.160Z,1.90
2023-05-18T15:22:05.817Z,1.58
2023-05-18T15:27:08.744Z,1.75
2023-05-18T15:32:10.407Z,2.47
2023-05-18T15:37:12.026Z,1.95
2023-05-18T15:42:13.576Z,1.63
2023-05-18T15:47:15.085Z,1.83
2023-05-18T15:52:16.653Z,1.65
2023-05-18T15:57:18.233Z,2.45
2023-05-18T16:02:19.903Z,1.70
2023-05-18T16:07:21.473Z,1.52
2023-05-18T16:12:23.050Z,1.83
2023-05-18T16:17:24.681Z,1.75
2023-05-18T16:22:26.583Z,1.67
2023-05-18T16:27:28.270Z,1.65
2023-05-18T16:32:31.546Z,1.45
2023-05-18T16:37:33.197Z,1.40
2023-05-18T16:42:35.107Z,1.25
2023-05-18T16:47:36.686Z,1.40
2023-05-18T16:52:38.222Z,1.80
2023-05-18T16:57:39.854Z,1.67
2023-05-18T17:02:41.690Z,1.90
2023-05-18T17:07:43.414Z,1.80
2023-05-18T17:12:45.268Z,1.60
2023-05-18T17:17:46.835Z,1.60
2023-05-18T17:22:48.532Z,1.75
2023-05-18T17:27:50.087Z,1.33
2023-05-18T17:32:51.704Z,1.50
2023-05-18T17:37:54.496Z,1.60
2023-05-18T17:42:56.033Z,1.45
2023-05-18T17:47:57.626Z,1.63
2023-05-18T17:52:59.202Z,1.33
2023-05-18T17:58:02.429Z,1.50
2023-05-18T18:03:04.212Z,1.70
2023-05-18T18:08:06.446Z,1.80
2023-05-18T18:13:07.993Z,1.75
2023-05-18T18:18:10.785Z,1.80
2023-05-18T18:23:12.400Z,2.17
2023-05-18T18:28:15.189Z,1.60
2023-05-18T18:33:17.320Z,1.48
2023-05-18T18:38:19.517Z,1.90
2023-05-18T18:43:21.066Z,1.50
2023-05-18T18:48:23.481Z,1.63
2023-05-18T18:53:26.358Z,1.73
2023-05-18T18:58:27.943Z,1.48
2023-05-18T19:03:29.634Z,1.85
2023-05-18T19:08:31.705Z,1.80
2023-05-18T19:13:33.311Z,1.60
2023-05-18T19:18:34.996Z,1.50
2023-05-18T19:23:36.593Z,1.67
2023-05-18T19:28:38.173Z,1.77
2023-05-18T19:33:39.777Z,4.90
2023-05-18T19:38:41.458Z,4.63
2023-05-18T19:43:42.984Z,3.70
2023-05-18T19:48:44.587Z,2.40
2023-05-18T19:53:46.258Z,2.00
2023-05-18T19:58:48.656Z,2.03
2023-05-18T20:03:50.881Z,1.80
2023-05-18T20:08:52.431Z,1.88
2023-05-18T20:13:54.153Z,2.28
2023-05-18T20:18:55.913Z,2.38
2023-05-18T20:23:57.573Z,1.98
2023-05-18T20:28:59.120Z,2.20
2023-05-18T20:34:00.668Z,1.65
2023-05-18T20:39:02.465Z,2.80
2023-05-18T20:44:04.058Z,2.00
2023-05-18T20:49:05.585Z,2.17
2023-05-18T20:54:07.526Z,2.17
2023-05-18T20:59:09.986Z,2.67
2023-05-18T21:04:13.114Z,2.08
2023-05-18T21:09:16.855Z,2.25
2023-05-18T21:14:18.411Z,2.72
2023-05-18T21:19:20.111Z,2.53
2023-05-18T21:24:21.662Z,2.95
2023-05-18T21:29:23.268Z,2.95
2023-05-18T21:34:24.850Z,2.42
2023-05-18T21:39:26.447Z,2.25
2023-05-18T21:44:27.992Z,2.85
2023-05-18T21:49:29.508Z,2.38
2023-05-18T21:54:33.347Z,2.85
2023-05-18T21:59:34.924Z,2.72
2023-05-18T22:04:36.589Z,2.17
2023-05-18T22:09:38.249Z,2.28
2023-05-18T22:14:39.822Z,2.20
2023-05-18T22:19:45.644Z,2.30
2023-05-18T22:24:48.724Z,2.03
2023-05-18T22:29:50.479Z,2.25
2023-05-18T22:34:52.128Z,1.83
2023-05-18T22:39:53.833Z,2.83
2023-05-18T22:44:55.616Z,2.40
2023-05-18T22:49:57.179Z,2.70
2023-05-18T22:54:58.720Z,2.22
2023-05-18T23:00:00.784Z,2.22
2023-05-18T23:05:02.727Z,2.30
2023-05-18T23:10:11.165Z,1.90
2023-05-18T23:15:12.801Z,2.33
2023-05-18T23:20:14.360Z,2.60
2023-05-18T23:25:16.075Z,2.30
2023-05-18T23:30:17.629Z,2.35
2023-05-18T23:35:19.523Z,2.35
2023-05-18T23:40:21.765Z,2.42
2023-05-18T23:45:23.671Z,2.97
2023-05-18T23:50:25.766Z,2.20
2023-05-18T23:55:28.356Z,2.80
